»·PEaware :: N357TW 46CA-L71

N357TW :: 46CA-L71

FLIGHT INFORMATION

Flight Status: Arrived
Operator: Privately registered:
United States
More flights under this callsign
Pilot: Brian C. (3887)
Aircraft: BEECH AIRCRAFT BARON
(BE58)
More flights by this aircraft type
Origin: 46CA Rancho Vallecito
United States
Destination: L71 California City Mun
United States
More flights between these airports :: More routes between these airports
Route: +DIRECT
File this flight plan on PilotEdge
Remarks:
Altitude:
(Current/Filed)
8,500ft
Speed:
(Current/Filed)
180kts
Departed: 27-Nov-15 08:23 AM
Arrived: 27-Nov-15 09:41 AM
Distance/Time
Traveled:
153nm/1:18
Distance/Time
To Go:
Arrived

Flight Plot

Page will automatically refresh every two minutes.


Map Options




Map Legend


Flown Route
Filed Route
Departure Airport
Arrival Airport
Navaid (VOR, NDB)
Fix

Horizontal Profiles

Position Reports

Time Latitude Longitude Heading Altitude Ground
Speed
27-Nov-15 07:56 32.971011 -116.411354 29 1681ft 0kts
27-Nov-15 07:57 32.971011 -116.411354 29 1681ft 0kts
27-Nov-15 08:00 32.971020 -116.411347 29 1681ft 0kts
27-Nov-15 08:01 32.971020 -116.411347 29 1681ft 0kts
27-Nov-15 08:02 32.971020 -116.411347 29 1681ft 0kts
27-Nov-15 08:03 32.971020 -116.411347 29 1681ft 0kts
27-Nov-15 08:04 32.971020 -116.411347 29 1681ft 0kts
27-Nov-15 08:05 32.971020 -116.411347 29 1681ft 0kts
27-Nov-15 08:06 32.971020 -116.411347 29 1681ft 0kts
27-Nov-15 08:07 32.971020 -116.411347 29 1681ft 0kts
27-Nov-15 08:08 32.971020 -116.411347 29 1681ft 0kts
27-Nov-15 08:09 32.971020 -116.411347 29 1681ft 0kts
27-Nov-15 08:10 32.971020 -116.411347 29 1681ft 0kts
27-Nov-15 08:11 32.971020 -116.411347 29 1681ft 0kts
27-Nov-15 08:12 32.971177 -116.410724 86 1681ft 5kts
27-Nov-15 08:13 32.970483 -116.408058 112 1681ft 12kts
27-Nov-15 08:14 32.969515 -116.405703 27 1681ft 0kts
27-Nov-15 08:15 32.969515 -116.405703 27 1681ft 0kts
27-Nov-15 08:16 32.969629 -116.405659 294 1681ft 0kts
27-Nov-15 08:17 32.970337 -116.408978 62 1681ft 10kts
27-Nov-15 08:18 32.969412 -116.405659 101 1681ft 2kts
27-Nov-15 08:19 32.969440 -116.405541 32 1681ft 0kts
27-Nov-15 08:20 32.972708 -116.416913 257 1820ft 89kts
27-Nov-15 08:21 32.970826 -116.407609 316 2328ft 120kts
27-Nov-15 08:22 32.992110 -116.439999 306 3188ft 135kts
27-Nov-15 08:23 33.014295 -116.478620 313 3870ft 145kts
27-Nov-15 08:24 33.041890 -116.508821 323 4917ft 119kts
27-Nov-15 08:25 33.065849 -116.533233 326 5832ft 111kts
27-Nov-15 08:26 33.096371 -116.552103 342 5974ft 131kts
27-Nov-15 08:27 33.133609 -116.561366 356 5969ft 146kts
27-Nov-15 08:28 33.172450 -116.569153 332 6012ft 149kts
27-Nov-15 08:29 33.207524 -116.595455 322 6091ft 149kts
27-Nov-15 08:30 33.235296 -116.624998 321 6665ft 127kts
27-Nov-15 08:31 33.260668 -116.652069 321 7032ft 124kts
27-Nov-15 08:32 33.286287 -116.679192 321 7408ft 120kts
27-Nov-15 08:33 33.310148 -116.704471 321 7788ft 109kts
27-Nov-15 08:34 33.332298 -116.724599 327 8164ft 96kts
27-Nov-15 08:35 33.353446 -116.741803 327 8473ft 86kts
27-Nov-15 08:36 33.373031 -116.757643 327 8490ft 89kts
27-Nov-15 08:37 33.396711 -116.776620 327 8488ft 114kts
27-Nov-15 08:38 33.424871 -116.798301 328 8483ft 126kts
27-Nov-15 08:39 33.455476 -116.819903 330 8481ft 130kts
27-Nov-15 08:40 33.487135 -116.842065 331 8484ft 135kts
27-Nov-15 08:41 33.519968 -116.865872 331 8487ft 141kts
27-Nov-15 08:42 33.553889 -116.890921 331 8493ft 147kts
27-Nov-15 08:43 33.589322 -116.916740 331 8497ft 151kts
27-Nov-15 08:44 33.623790 -116.941133 331 8497ft 154kts
27-Nov-15 08:45 33.660832 -116.967214 331 8492ft 155kts
27-Nov-15 08:46 33.697804 -116.993224 331 8486ft 152kts
27-Nov-15 08:47 33.733570 -117.018419 331 8474ft 148kts
27-Nov-15 08:48 33.768427 -117.043011 331 8470ft 143kts
27-Nov-15 08:49 33.803086 -117.066343 333 8468ft 145kts
27-Nov-15 08:50 33.839606 -117.090688 332 8464ft 153kts
27-Nov-15 08:51 33.877327 -117.115983 332 8461ft 158kts
27-Nov-15 08:52 33.915541 -117.143419 330 8461ft 162kts
27-Nov-15 08:53 33.954251 -117.171443 330 8463ft 164kts
27-Nov-15 08:54 33.993154 -117.199552 330 8465ft 164kts
27-Nov-15 08:55 34.032822 -117.225605 340 8466ft 162kts
27-Nov-15 08:56 34.075261 -117.243883 343 8468ft 162kts
27-Nov-15 08:57 34.114822 -117.266883 331 8469ft 163kts
27-Nov-15 08:58 34.153794 -117.294988 331 8469ft 164kts
27-Nov-15 08:59 34.192897 -117.323186 331 8469ft 164kts
27-Nov-15 09:00 34.231891 -117.350571 331 8478ft 163kts
27-Nov-15 09:01 34.271180 -117.377766 331 8480ft 163kts
27-Nov-15 09:02 34.310348 -117.407535 328 8188ft 174kts
27-Nov-15 09:03 34.351534 -117.439576 328 7638ft 179kts
27-Nov-15 09:04 34.393616 -117.471291 330 7128ft 180kts
27-Nov-15 09:05 34.436669 -117.502106 330 6635ft 180kts
27-Nov-15 09:06 34.478617 -117.532058 330 6506ft 171kts
27-Nov-15 09:07 34.519034 -117.560891 330 6507ft 167kts
27-Nov-15 09:08 34.558842 -117.589291 330 6507ft 166kts
27-Nov-15 09:09 34.598489 -117.617616 330 6508ft 166kts
27-Nov-15 09:10 34.637845 -117.645872 330 6508ft 165kts
27-Nov-15 09:11 34.676472 -117.673791 329 6508ft 164kts
27-Nov-15 09:12 34.715352 -117.702111 329 6507ft 163kts
27-Nov-15 09:13 34.747594 -117.725792 329 6507ft 162kts
27-Nov-15 09:14 34.785962 -117.754196 329 6507ft 162kts
27-Nov-15 09:15 34.824051 -117.782583 329 6507ft 161kts
27-Nov-15 09:16 34.844222 -117.827752 257 6507ft 170kts
27-Nov-15 09:17 34.812192 -117.870160 214 6507ft 176kts
27-Nov-15 09:18 34.771285 -117.902290 214 6509ft 176kts
27-Nov-15 09:19 34.732771 -117.938508 222 6511ft 175kts
27-Nov-15 09:20 34.706115 -117.982688 278 6517ft 166kts
27-Nov-15 09:21 34.712877 -118.038412 280 6515ft 167kts
27-Nov-15 09:22 34.722572 -118.093142 313 6514ft 164kts
27-Nov-15 09:23 34.764073 -118.112762 345 6518ft 163kts
27-Nov-15 09:24 34.807973 -118.126345 345 6518ft 163kts
27-Nov-15 09:25 34.851749 -118.139807 345 6518ft 163kts
27-Nov-15 09:26 34.896715 -118.143734 359 6518ft 163kts
27-Nov-15 09:27 34.942119 -118.143509 359 6516ft 163kts
27-Nov-15 09:28 34.987382 -118.143546 359 6514ft 163kts
27-Nov-15 09:29 35.032560 -118.143857 359 6512ft 163kts
27-Nov-15 09:30 35.078157 -118.144368 359 6285ft 166kts
27-Nov-15 09:31 35.123765 -118.144904 359 5676ft 167kts
27-Nov-15 09:32 35.168142 -118.137971 37 4662ft 165kts
27-Nov-15 09:33 35.196656 -118.097777 64 3963ft 133kts
27-Nov-15 09:34 35.193585 -118.057574 101 3927ft 131kts
27-Nov-15 09:35 35.190846 -118.020521 91 3488ft 95kts
27-Nov-15 09:36 35.183232 -117.987675 110 3413ft 105kts
27-Nov-15 09:37 35.157512 -117.985500 259 2766ft 99kts
27-Nov-15 09:38 35.152223 -118.012031 258 2436ft 27kts
27-Nov-15 09:39 35.149738 -118.015617 92 2436ft 0kts
27-Nov-15 09:40 35.149738 -118.015617 92 2436ft 0kts

Navigation Log

Ident Type
Flight plan parsing failed, navigation log unavailable